sensor_id;sensor_type;location;lat;lon;timestamp;pressure;altitude;pressure_sealevel;temperature;humidity
25080;BME280;13071;48.868;9.996;2022-09-12T00:01:47;96698.50;;;11.74;100.00
25080;BME280;13071;48.868;9.996;2022-09-12T00:04:13;96694.44;;;11.80;100.00
25080;BME280;13071;48.868;9.996;2022-09-12T00:06:41;96698.94;;;11.76;100.00
25080;BME280;13071;48.868;9.996;2022-09-12T00:09:09;96695.00;;;11.73;100.00
25080;BME280;13071;48.868;9.996;2022-09-12T00:11:39;96694.31;;;11.76;99.92
25080;BME280;13071;48.868;9.996;2022-09-12T00:14:07;96690.50;;;11.77;99.71
25080;BME280;13071;48.868;9.996;2022-09-12T00:16:35;96687.72;;;11.65;99.87
25080;BME280;13071;48.868;9.996;2022-09-12T00:19:03;96696.41;;;11.58;100.00
25080;BME280;13071;48.868;9.996;2022-09-12T00:21:31;96690.19;;;11.58;100.00
25080;BME280;13071;48.868;9.996;2022-09-12T00:23:58;96695.22;;;11.47;100.00
25080;BME280;13071;48.868;9.996;2022-09-12T00:26:25;96693.19;;;11.44;100.00
25080;BME280;13071;48.868;9.996;2022-09-12T00:28:53;96687.19;;;11.39;100.00
25080;BME280;13071;48.868;9.996;2022-09-12T00:31:21;96697.13;;;11.35;100.00
25080;BME280;13071;48.868;9.996;2022-09-12T00:33:48;96693.41;;;11.39;100.00
25080;BME280;13071;48.868;9.996;2022-09-12T00:36:17;96684.13;;;11.40;100.00
25080;BME280;13071;48.868;9.996;2022-09-12T00:38:45;96683.63;;;11.26;99.40
25080;BME280;13071;48.868;9.996;2022-09-12T00:41:16;96680.69;;;11.19;100.00
25080;BME280;13071;48.868;9.996;2022-09-12T00:43:44;96680.00;;;11.22;100.00
25080;BME280;13071;48.868;9.996;2022-09-12T00:46:22;96668.69;;;11.20;100.00
25080;BME280;13071;48.868;9.996;2022-09-12T00:48:55;96668.53;;;11.04;100.00
25080;BME280;13071;48.868;9.996;2022-09-12T00:51:24;96668.56;;;11.16;100.00
25080;BME280;13071;48.868;9.996;2022-09-12T00:53:52;96675.69;;;11.21;100.00
25080;BME280;13071;48.868;9.996;2022-09-12T00:56:22;96672.78;;;11.26;100.00
25080;BME280;13071;48.868;9.996;2022-09-12T00:58:55;96671.19;;;11.25;100.00
25080;BME280;13071;48.868;9.996;2022-09-12T01:01:24;96673.16;;;11.24;100.00
25080;BME280;13071;48.868;9.996;2022-09-12T01:03:51;96667.94;;;11.19;100.00
25080;BME280;13071;48.868;9.996;2022-09-12T01:06:20;96665.22;;;11.19;100.00
25080;BME280;13071;48.868;9.996;2022-09-12T01:08:50;96659.00;;;11.19;100.00
25080;BME280;13071;48.868;9.996;2022-09-12T01:11:18;96657.22;;;11.23;100.00
25080;BME280;13071;48.868;9.996;2022-09-12T01:13:47;96655.41;;;11.27;100.00
25080;BME280;13071;48.868;9.996;2022-09-12T01:16:15;96653.00;;;11.13;100.00
25080;BME280;13071;48.868;9.996;2022-09-12T01:18:53;96656.03;;;11.12;100.00
25080;BME280;13071;48.868;9.996;2022-09-12T01:21:30;96643.28;;;11.12;100.00
25080;BME280;13071;48.868;9.996;2022-09-12T01:24:30;96636.28;;;11.11;100.00
25080;BME280;13071;48.868;9.996;2022-09-12T01:27:24;96627.97;;;10.96;100.00
25080;BME280;13071;48.868;9.996;2022-09-12T01:30:21;96643.47;;;11.07;100.00
25080;BME280;13071;48.868;9.996;2022-09-12T01:33:00;96637.38;;;11.10;100.00
25080;BME280;13071;48.868;9.996;2022-09-12T01:35:35;96637.19;;;11.15;100.00
25080;BME280;13071;48.868;9.996;2022-09-12T01:38:08;96632.91;;;11.14;100.00
25080;BME280;13071;48.868;9.996;2022-09-12T01:40:43;96637.56;;;10.93;100.00
25080;BME280;13071;48.868;9.996;2022-09-12T01:43:16;96632.16;;;10.93;100.00
25080;BME280;13071;48.868;9.996;2022-09-12T01:45:55;96637.47;;;11.02;100.00
25080;BME280;13071;48.868;9.996;2022-09-12T01:48:26;96630.47;;;11.01;100.00
25080;BME280;13071;48.868;9.996;2022-09-12T01:51:00;96635.44;;;10.78;100.00
25080;BME280;13071;48.868;9.996;2022-09-12T01:53:34;96630.22;;;10.73;100.00
25080;BME280;13071;48.868;9.996;2022-09-12T01:56:07;96620.19;;;10.73;100.00
25080;BME280;13071;48.868;9.996;2022-09-12T01:58:39;96615.09;;;10.72;100.00
25080;BME280;13071;48.868;9.996;2022-09-12T02:01:14;96622.31;;;10.68;100.00
25080;BME280;13071;48.868;9.996;2022-09-12T02:03:47;96620.59;;;10.63;100.00
25080;BME280;13071;48.868;9.996;2022-09-12T02:06:18;96630.03;;;10.57;100.00
25080;BME280;13071;48.868;9.996;2022-09-12T02:08:48;96630.16;;;10.61;100.00
25080;BME280;13071;48.868;9.996;2022-09-12T02:11:15;96627.25;;;10.66;100.00
25080;BME280;13071;48.868;9.996;2022-09-12T02:13:46;96620.91;;;10.62;100.00
25080;BME280;13071;48.868;9.996;2022-09-12T02:16:18;96618.28;;;10.74;100.00
25080;BME280;13071;48.868;9.996;2022-09-12T02:18:50;96614.91;;;10.77;100.00
25080;BME280;13071;48.868;9.996;2022-09-12T02:21:18;96611.69;;;10.83;100.00
25080;BME280;13071;48.868;9.996;2022-09-12T02:23:53;96614.97;;;10.89;100.00
25080;BME280;13071;48.868;9.996;2022-09-12T02:26:24;96613.97;;;10.94;100.00
25080;BME280;13071;48.868;9.996;2022-09-12T02:28:56;96606.44;;;10.99;100.00
25080;BME280;13071;48.868;9.996;2022-09-12T02:31:27;96605.66;;;10.99;100.00
25080;BME280;13071;48.868;9.996;2022-09-12T02:34:06;96614.63;;;10.91;100.00
25080;BME280;13071;48.868;9.996;2022-09-12T02:36:43;96608.84;;;10.80;100.00
25080;BME280;13071;48.868;9.996;2022-09-12T02:39:15;96607.78;;;10.72;100.00
25080;BME280;13071;48.868;9.996;2022-09-12T02:41:44;96603.25;;;10.64;100.00
25080;BME280;13071;48.868;9.996;2022-09-12T02:44:11;96610.69;;;10.67;100.00
25080;BME280;13071;48.868;9.996;2022-09-12T02:46:41;96610.69;;;10.67;100.00
25080;BME280;13071;48.868;9.996;2022-09-12T02:49:09;96606.41;;;10.66;100.00
25080;BME280;13071;48.868;9.996;2022-09-12T02:51:36;96601.66;;;10.63;99.97
25080;BME280;13071;48.868;9.996;2022-09-12T02:54:03;96597.34;;;10.62;99.59
25080;BME280;13071;48.868;9.996;2022-09-12T02:56:31;96595.25;;;10.47;98.82
25080;BME280;13071;48.868;9.996;2022-09-12T02:58:59;96601.00;;;10.46;99.51
25080;BME280;13071;48.868;9.996;2022-09-12T03:01:36;96596.81;;;10.48;100.00
25080;BME280;13071;48.868;9.996;2022-09-12T03:04:23;96600.66;;;10.47;99.56
25080;BME280;13071;48.868;9.996;2022-09-12T03:07:06;96590.75;;;10.30;99.44
25080;BME280;13071;48.868;9.996;2022-09-12T03:09:43;96593.47;;;10.30;100.00
25080;BME280;13071;48.868;9.996;2022-09-12T03:12:24;96593.41;;;10.39;100.00
25080;BME280;13071;48.868;9.996;2022-09-12T03:15:06;96593.41;;;10.39;100.00
25080;BME280;13071;48.868;9.996;2022-09-12T03:17:45;96590.19;;;10.46;100.00
25080;BME280;13071;48.868;9.996;2022-09-12T03:20:27;96592.47;;;10.35;100.00
25080;BME280;13071;48.868;9.996;2022-09-12T03:23:01;96598.88;;;10.30;99.10
25080;BME280;13071;48.868;9.996;2022-09-12T03:25:31;96591.06;;;10.29;99.23
25080;BME280;13071;48.868;9.996;2022-09-12T03:28:04;96594.97;;;10.19;99.01
25080;BME280;13071;48.868;9.996;2022-09-12T03:30:37;96572.88;;;10.09;99.32
25080;BME280;13071;48.868;9.996;2022-09-12T03:33:04;96592.69;;;10.21;99.72
25080;BME280;13071;48.868;9.996;2022-09-12T03:35:32;96592.72;;;10.13;98.99
25080;BME280;13071;48.868;9.996;2022-09-12T03:37:58;96591.50;;;10.02;99.34
25080;BME280;13071;48.868;9.996;2022-09-12T03:40:25;96588.69;;;9.98;99.86
25080;BME280;13071;48.868;9.996;2022-09-12T03:42:51;96587.75;;;9.94;99.50
25080;BME280;13071;48.868;9.996;2022-09-12T03:45:18;96589.47;;;9.98;99.66
25080;BME280;13071;48.868;9.996;2022-09-12T03:47:44;96588.56;;;9.94;100.00
25080;BME280;13071;48.868;9.996;2022-09-12T03:50:11;96588.69;;;9.98;100.00
25080;BME280;13071;48.868;9.996;2022-09-12T03:52:39;96585.78;;;10.03;99.81
25080;BME280;13071;48.868;9.996;2022-09-12T03:55:06;96590.94;;;9.96;99.88
25080;BME280;13071;48.868;9.996;2022-09-12T03:57:33;96588.88;;;9.93;100.00
25080;BME280;13071;48.868;9.996;2022-09-12T03:59:59;96592.97;;;9.99;100.00
25080;BME280;13071;48.868;9.996;2022-09-12T04:02:27;96588.41;;;9.91;100.00
25080;BME280;13071;48.868;9.996;2022-09-12T04:04:53;96581.00;;;9.79;100.00
25080;BME280;13071;48.868;9.996;2022-09-12T04:07:20;96586.91;;;9.73;100.00
25080;BME280;13071;48.868;9.996;2022-09-12T04:09:48;96590.88;;;9.75;100.00
25080;BME280;13071;48.868;9.996;2022-09-12T04:12:14;96588.91;;;9.84;100.00
25080;BME280;13071;48.868;9.996;2022-09-12T04:14:41;96586.34;;;9.88;100.00
25080;BME280;13071;48.868;9.996;2022-09-12T04:17:07;96581.47;;;9.81;100.00
25080;BME280;13071;48.868;9.996;2022-09-12T04:19:34;96584.19;;;9.81;100.00
25080;BME280;13071;48.868;9.996;2022-09-12T04:22:00;96591.13;;;9.82;100.00
25080;BME280;13071;48.868;9.996;2022-09-12T04:24:27;96588.81;;;9.72;99.64
25080;BME280;13071;48.868;9.996;2022-09-12T04:26:55;96589.31;;;9.66;98.67
25080;BME280;13071;48.868;9.996;2022-09-12T04:29:22;96594.75;;;9.57;98.87
25080;BME280;13071;48.868;9.996;2022-09-12T04:31:48;96593.81;;;9.62;99.82
25080;BME280;13071;48.868;9.996;2022-09-12T04:34:15;96590.97;;;9.49;100.00
25080;BME280;13071;48.868;9.996;2022-09-12T04:36:42;96591.09;;;9.53;100.00
25080;BME280;13071;48.868;9.996;2022-09-12T04:39:09;96596.19;;;9.54;100.00
25080;BME280;13071;48.868;9.996;2022-09-12T04:41:38;96590.34;;;9.44;100.00
25080;BME280;13071;48.868;9.996;2022-09-12T04:44:10;96595.88;;;9.47;100.00
25080;BME280;13071;48.868;9.996;2022-09-12T04:46:39;96591.63;;;9.46;100.00
25080;BME280;13071;48.868;9.996;2022-09-12T04:49:06;96596.38;;;9.49;100.00
25080;BME280;13071;48.868;9.996;2022-09-12T04:51:34;96590.66;;;9.51;100.00
25080;BME280;13071;48.868;9.996;2022-09-12T04:54:04;96588.13;;;9.37;100.00
25080;BME280;13071;48.868;9.996;2022-09-12T04:56:31;96588.47;;;9.36;100.00
25080;BME280;13071;48.868;9.996;2022-09-12T04:58:59;96594.19;;;9.34;100.00
25080;BME280;13071;48.868;9.996;2022-09-12T05:01:28;96591.81;;;9.33;99.71
25080;BME280;13071;48.868;9.996;2022-09-12T05:03:56;96591.22;;;9.27;100.00
25080;BME280;13071;48.868;9.996;2022-09-12T05:06:26;96582.16;;;9.32;100.00
25080;BME280;13071;48.868;9.996;2022-09-12T05:08:54;96593.38;;;9.42;99.57
25080;BME280;13071;48.868;9.996;2022-09-12T05:11:23;96587.19;;;9.42;99.02
25080;BME280;13071;48.868;9.996;2022-09-12T05:13:50;96584.78;;;9.49;98.65
25080;BME280;13071;48.868;9.996;2022-09-12T05:16:18;96582.03;;;9.58;99.46
25080;BME280;13071;48.868;9.996;2022-09-12T05:18:46;96584.47;;;9.50;97.71
25080;BME280;13071;48.868;9.996;2022-09-12T05:21:14;96584.25;;;9.64;97.21
25080;BME280;13071;48.868;9.996;2022-09-12T05:23:42;96586.63;;;9.66;96.65
25080;BME280;13071;48.868;9.996;2022-09-12T05:26:11;96588.63;;;9.77;96.35
25080;BME280;13071;48.868;9.996;2022-09-12T05:28:38;96593.22;;;9.85;98.11
25080;BME280;13071;48.868;9.996;2022-09-12T05:31:07;96590.16;;;9.87;97.88
25080;BME280;13071;48.868;9.996;2022-09-12T05:33:36;96589.59;;;10.02;96.71
25080;BME280;13071;48.868;9.996;2022-09-12T05:36:08;96595.63;;;10.08;97.65
25080;BME280;13071;48.868;9.996;2022-09-12T05:38:35;96592.13;;;10.07;98.83
25080;BME280;13071;48.868;9.996;2022-09-12T05:41:03;96601.97;;;10.20;98.07
25080;BME280;13071;48.868;9.996;2022-09-12T05:43:30;96600.78;;;10.30;97.92
25080;BME280;13071;48.868;9.996;2022-09-12T05:46:00;96604.81;;;10.15;100.00
25080;BME280;13071;48.868;9.996;2022-09-12T05:48:27;96601.47;;;10.18;100.00
25080;BME280;13071;48.868;9.996;2022-09-12T05:50:58;96609.34;;;10.32;100.00
25080;BME280;13071;48.868;9.996;2022-09-12T05:53:27;96602.91;;;10.45;99.47
25080;BME280;13071;48.868;9.996;2022-09-12T05:56:03;96613.16;;;10.60;99.56
25080;BME280;13071;48.868;9.996;2022-09-12T05:58:30;96614.66;;;10.70;100.00
25080;BME280;13071;48.868;9.996;2022-09-12T06:01:00;96616.03;;;10.34;100.00
25080;BME280;13071;48.868;9.996;2022-09-12T06:03:27;96607.53;;;10.45;100.00
25080;BME280;13071;48.868;9.996;2022-09-12T06:05:54;96610.94;;;10.95;99.80
25080;BME280;13071;48.868;9.996;2022-09-12T06:08:20;96611.47;;;11.21;98.65
25080;BME280;13071;48.868;9.996;2022-09-12T06:10:48;96602.41;;;11.38;98.44
25080;BME280;13071;48.868;9.996;2022-09-12T06:13:15;96600.75;;;11.70;96.34
25080;BME280;13071;48.868;9.996;2022-09-12T06:15:41;96605.53;;;11.85;95.14
25080;BME280;13071;48.868;9.996;2022-09-12T06:18:08;96606.78;;;11.88;96.10
25080;BME280;13071;48.868;9.996;2022-09-12T06:20:36;96604.31;;;11.83;94.71
25080;BME280;13071;48.868;9.996;2022-09-12T06:23:02;96608.63;;;11.51;98.09
25080;BME280;13071;48.868;9.996;2022-09-12T06:25:29;96601.59;;;11.95;95.64
25080;BME280;13071;48.868;9.996;2022-09-12T06:27:57;96599.00;;;12.23;95.55
25080;BME280;13071;48.868;9.996;2022-09-12T06:30:23;96600.78;;;12.31;96.03
25080;BME280;13071;48.868;9.996;2022-09-12T06:32:51;96599.09;;;12.26;96.11
25080;BME280;13071;48.868;9.996;2022-09-12T06:35:17;96595.84;;;12.08;96.89
25080;BME280;13071;48.868;9.996;2022-09-12T06:37:44;96599.41;;;12.37;95.56
25080;BME280;13071;48.868;9.996;2022-09-12T06:40:11;96597.03;;;12.47;96.46
25080;BME280;13071;48.868;9.996;2022-09-12T06:42:37;96598.66;;;12.64;97.16
25080;BME280;13071;48.868;9.996;2022-09-12T06:45:06;96600.66;;;12.79;96.75
25080;BME280;13071;48.868;9.996;2022-09-12T06:47:33;96594.59;;;12.70;97.28
25080;BME280;13071;48.868;9.996;2022-09-12T06:49:59;96596.78;;;12.92;98.31
25080;BME280;13071;48.868;9.996;2022-09-12T06:52:26;96596.72;;;13.05;97.94
25080;BME280;13071;48.868;9.996;2022-09-12T06:54:53;96587.06;;;12.91;99.44
25080;BME280;13071;48.868;9.996;2022-09-12T06:57:19;96593.22;;;13.04;100.00
25080;BME280;13071;48.868;9.996;2022-09-12T06:59:46;96596.34;;;13.18;100.00
25080;BME280;13071;48.868;9.996;2022-09-12T07:02:14;96593.41;;;13.39;100.00
25080;BME280;13071;48.868;9.996;2022-09-12T07:04:40;96588.09;;;13.74;99.19
25080;BME280;13071;48.868;9.996;2022-09-12T07:07:07;96585.19;;;13.82;99.54
25080;BME280;13071;48.868;9.996;2022-09-12T07:09:34;96582.75;;;13.93;100.00
25080;BME280;13071;48.868;9.996;2022-09-12T07:12:01;96582.31;;;13.91;100.00
25080;BME280;13071;48.868;9.996;2022-09-12T07:14:29;96589.16;;;13.85;100.00
25080;BME280;13071;48.868;9.996;2022-09-12T07:16:55;96591.53;;;13.71;100.00
25080;BME280;13071;48.868;9.996;2022-09-12T07:19:23;96595.03;;;14.03;100.00
25080;BME280;13071;48.868;9.996;2022-09-12T07:21:50;96591.94;;;14.20;100.00
25080;BME280;13071;48.868;9.996;2022-09-12T07:24:16;96589.91;;;14.17;100.00
25080;BME280;13071;48.868;9.996;2022-09-12T07:26:43;96591.50;;;14.18;100.00
25080;BME280;13071;48.868;9.996;2022-09-12T07:29:13;96592.69;;;14.52;100.00
25080;BME280;13071;48.868;9.996;2022-09-12T07:31:41;96592.84;;;14.59;100.00
25080;BME280;13071;48.868;9.996;2022-09-12T07:34:08;96596.78;;;14.61;100.00
25080;BME280;13071;48.868;9.996;2022-09-12T07:36:36;96599.34;;;14.89;100.00
25080;BME280;13071;48.868;9.996;2022-09-12T07:39:03;96593.59;;;15.13;100.00
25080;BME280;13071;48.868;9.996;2022-09-12T07:41:31;96593.78;;;15.43;100.00
25080;BME280;13071;48.868;9.996;2022-09-12T07:43:59;96599.22;;;15.63;100.00
25080;BME280;13071;48.868;9.996;2022-09-12T07:46:27;96596.34;;;15.55;100.00
25080;BME280;13071;48.868;9.996;2022-09-12T07:48:56;96594.66;;;15.70;100.00
25080;BME280;13071;48.868;9.996;2022-09-12T07:51:24;96595.22;;;15.79;100.00
25080;BME280;13071;48.868;9.996;2022-09-12T07:53:52;96593.16;;;15.95;100.00
25080;BME280;13071;48.868;9.996;2022-09-12T07:56:19;96587.38;;;16.01;100.00
25080;BME280;13071;48.868;9.996;2022-09-12T07:58:47;96579.22;;;16.27;100.00
25080;BME280;13071;48.868;9.996;2022-09-12T08:01:15;96577.22;;;16.50;95.84
25080;BME280;13071;48.868;9.996;2022-09-12T08:03:44;96579.13;;;16.72;94.78
25080;BME280;13071;48.868;9.996;2022-09-12T08:06:13;96575.38;;;16.88;89.98
25080;BME280;13071;48.868;9.996;2022-09-12T08:08:40;96584.75;;;17.16;88.53
25080;BME280;13071;48.868;9.996;2022-09-12T08:11:10;96589.97;;;17.32;90.78
25080;BME280;13071;48.868;9.996;2022-09-12T08:13:37;96588.91;;;17.40;87.12
25080;BME280;13071;48.868;9.996;2022-09-12T08:16:13;96590.69;;;17.59;83.72
25080;BME280;13071;48.868;9.996;2022-09-12T08:18:40;96591.94;;;17.65;84.56
25080;BME280;13071;48.868;9.996;2022-09-12T08:21:11;96592.09;;;17.83;84.37
25080;BME280;13071;48.868;9.996;2022-09-12T08:23:38;96586.34;;;17.98;85.30
25080;BME280;13071;48.868;9.996;2022-09-12T08:26:05;96595.03;;;18.07;81.23
25080;BME280;13071;48.868;9.996;2022-09-12T08:28:34;96595.34;;;17.95;81.02
25080;BME280;13071;48.868;9.996;2022-09-12T08:31:01;96597.78;;;18.11;81.97
25080;BME280;13071;48.868;9.996;2022-09-12T08:33:29;96591.69;;;18.32;81.45
25080;BME280;13071;48.868;9.996;2022-09-12T08:36:02;96592.97;;;18.45;80.70
25080;BME280;13071;48.868;9.996;2022-09-12T08:38:29;96588.69;;;18.47;78.84
25080;BME280;13071;48.868;9.996;2022-09-12T08:41:00;96587.88;;;18.47;78.65
25080;BME280;13071;48.868;9.996;2022-09-12T08:43:40;96586.78;;;18.55;78.32
25080;BME280;13071;48.868;9.996;2022-09-12T08:46:15;96586.84;;;18.59;78.88
25080;BME280;13071;48.868;9.996;2022-09-12T08:48:45;96596.13;;;18.47;76.16
25080;BME280;13071;48.868;9.996;2022-09-12T08:51:14;96582.41;;;18.43;76.58
25080;BME280;13071;48.868;9.996;2022-09-12T08:53:43;96587.84;;;18.40;78.42
25080;BME280;13071;48.868;9.996;2022-09-12T08:56:11;96583.72;;;18.64;78.07
25080;BME280;13071;48.868;9.996;2022-09-12T08:58:41;96573.50;;;18.57;76.21
25080;BME280;13071;48.868;9.996;2022-09-12T09:01:14;96575.16;;;18.69;73.96
25080;BME280;13071;48.868;9.996;2022-09-12T09:04:18;96574.78;;;18.77;77.14
25080;BME280;13071;48.868;9.996;2022-09-12T09:07:06;96578.69;;;18.80;76.63
25080;BME280;13071;48.868;9.996;2022-09-12T09:09:53;96578.00;;;18.93;75.41
25080;BME280;13071;48.868;9.996;2022-09-12T09:12:28;96579.59;;;19.05;74.65
25080;BME280;13071;48.868;9.996;2022-09-12T09:15:29;96574.91;;;18.98;72.96
25080;BME280;13071;48.868;9.996;2022-09-12T09:18:00;96577.69;;;19.09;75.26
25080;BME280;13071;48.868;9.996;2022-09-12T09:20:34;96576.06;;;18.97;74.94
25080;BME280;13071;48.868;9.996;2022-09-12T09:23:07;96581.50;;;18.90;73.86
25080;BME280;13071;48.868;9.996;2022-09-12T09:25:44;96582.34;;;19.02;72.14
25080;BME280;13071;48.868;9.996;2022-09-12T09:28:15;96575.38;;;19.18;70.22
25080;BME280;13071;48.868;9.996;2022-09-12T09:30:45;96569.91;;;19.29;68.45
25080;BME280;13071;48.868;9.996;2022-09-12T09:33:19;96576.56;;;19.35;71.02
25080;BME280;13071;48.868;9.996;2022-09-12T09:35:52;96578.16;;;19.39;70.88
25080;BME280;13071;48.868;9.996;2022-09-12T09:38:24;96573.91;;;19.46;70.30
25080;BME280;13071;48.868;9.996;2022-09-12T09:41:02;96572.66;;;19.32;69.92
25080;BME280;13071;48.868;9.996;2022-09-12T09:43:32;96573.94;;;19.53;69.90
25080;BME280;13071;48.868;9.996;2022-09-12T09:46:00;96564.50;;;19.54;69.54
25080;BME280;13071;48.868;9.996;2022-09-12T09:48:28;96566.84;;;19.52;70.01
25080;BME280;13071;48.868;9.996;2022-09-12T09:50:57;96566.81;;;19.41;68.52
25080;BME280;13071;48.868;9.996;2022-09-12T09:53:33;96561.38;;;19.66;68.81
25080;BME280;13071;48.868;9.996;2022-09-12T09:56:06;96563.34;;;19.79;66.11
25080;BME280;13071;48.868;9.996;2022-09-12T09:58:35;96565.72;;;19.81;66.13
25080;BME280;13071;48.868;9.996;2022-09-12T10:01:04;96565.34;;;19.90;66.45
25080;BME280;13071;48.868;9.996;2022-09-12T10:03:33;96556.69;;;19.63;68.54
25080;BME280;13071;48.868;9.996;2022-09-12T10:06:07;96559.44;;;19.66;66.00
25080;BME280;13071;48.868;9.996;2022-09-12T10:08:47;96566.91;;;19.87;67.40
25080;BME280;13071;48.868;9.996;2022-09-12T10:11:18;96562.56;;;19.79;66.68
25080;BME280;13071;48.868;9.996;2022-09-12T10:13:52;96561.81;;;19.96;67.51
25080;BME280;13071;48.868;9.996;2022-09-12T10:16:24;96565.72;;;19.99;65.45
25080;BME280;13071;48.868;9.996;2022-09-12T10:18:53;96552.38;;;20.15;66.14
25080;BME280;13071;48.868;9.996;2022-09-12T10:21:24;96557.88;;;20.25;67.02
25080;BME280;13071;48.868;9.996;2022-09-12T10:23:59;96554.34;;;20.18;67.41
25080;BME280;13071;48.868;9.996;2022-09-12T10:26:31;96552.41;;;20.11;68.69
25080;BME280;13071;48.868;9.996;2022-09-12T10:29:03;96554.75;;;20.09;65.42
25080;BME280;13071;48.868;9.996;2022-09-12T10:31:40;96560.66;;;19.97;65.26
25080;BME280;13071;48.868;9.996;2022-09-12T10:34:19;96555.13;;;20.15;66.77
25080;BME280;13071;48.868;9.996;2022-09-12T10:36:47;96557.88;;;20.18;67.66
25080;BME280;13071;48.868;9.996;2022-09-12T10:39:17;96557.50;;;20.16;65.59
25080;BME280;13071;48.868;9.996;2022-09-12T10:41:44;96547.66;;;20.44;64.92
25080;BME280;13071;48.868;9.996;2022-09-12T10:44:14;96546.44;;;20.59;62.62
25080;BME280;13071;48.868;9.996;2022-09-12T10:46:44;96562.13;;;20.69;64.78
25080;BME280;13071;48.868;9.996;2022-09-12T10:49:23;96554.66;;;20.80;64.69
25080;BME280;13071;48.868;9.996;2022-09-12T10:51:51;96550.78;;;20.67;62.51
25080;BME280;13071;48.868;9.996;2022-09-12T10:54:21;96555.09;;;20.54;61.95
25080;BME280;13071;48.868;9.996;2022-09-12T10:57:00;96549.59;;;20.54;61.65
25080;BME280;13071;48.868;9.996;2022-09-12T10:59:39;96559.41;;;20.58;61.98
25080;BME280;13071;48.868;9.996;2022-09-12T11:02:21;96545.69;;;20.62;64.60
25080;BME280;13071;48.868;9.996;2022-09-12T11:04:59;96548.38;;;20.73;64.88
25080;BME280;13071;48.868;9.996;2022-09-12T11:07:44;96546.41;;;20.80;63.43
25080;BME280;13071;48.868;9.996;2022-09-12T11:10:23;96540.94;;;20.69;65.34
25080;BME280;13071;48.868;9.996;2022-09-12T11:12:58;96543.16;;;21.06;64.57
25080;BME280;13071;48.868;9.996;2022-09-12T11:15:36;96536.47;;;21.15;63.30
25080;BME280;13071;48.868;9.996;2022-09-12T11:18:16;96530.53;;;21.20;65.13
25080;BME280;13071;48.868;9.996;2022-09-12T11:20:59;96529.91;;;20.80;63.98
25080;BME280;13071;48.868;9.996;2022-09-12T11:23:41;96535.28;;;21.08;61.02
25080;BME280;13071;48.868;9.996;2022-09-12T11:26:22;96526.63;;;21.21;59.38
25080;BME280;13071;48.868;9.996;2022-09-12T11:28:57;96527.81;;;21.16;62.31
25080;BME280;13071;48.868;9.996;2022-09-12T11:34:42;96518.56;;;21.51;62.76
25080;BME280;13071;48.868;9.996;2022-09-12T11:37:24;96521.75;;;21.46;62.77
25080;BME280;13071;48.868;9.996;2022-09-12T11:40:01;96528.00;;;21.50;60.55
25080;BME280;13071;48.868;9.996;2022-09-12T11:42:36;96522.50;;;21.50;61.46
25080;BME280;13071;48.868;9.996;2022-09-12T11:45:12;96518.22;;;21.42;62.10
25080;BME280;13071;48.868;9.996;2022-09-12T11:47:44;96512.16;;;21.68;60.37
25080;BME280;13071;48.868;9.996;2022-09-12T11:50:19;96504.41;;;21.49;63.97
25080;BME280;13071;48.868;9.996;2022-09-12T11:52:49;96503.31;;;21.36;62.37
25080;BME280;13071;48.868;9.996;2022-09-12T11:55:18;96507.47;;;21.62;62.06
25080;BME280;13071;48.868;9.996;2022-09-12T11:57:51;96500.72;;;21.70;61.29
25080;BME280;13071;48.868;9.996;2022-09-12T12:00:20;96505.34;;;21.83;59.19
25080;BME280;13071;48.868;9.996;2022-09-12T12:02:54;96505.44;;;21.69;58.62
25080;BME280;13071;48.868;9.996;2022-09-12T12:05:24;96501.63;;;21.52;62.35
25080;BME280;13071;48.868;9.996;2022-09-12T12:07:54;96510.59;;;21.64;62.73
25080;BME280;13071;48.868;9.996;2022-09-12T12:10:24;96502.31;;;21.71;60.99
25080;BME280;13071;48.868;9.996;2022-09-12T12:12:53;96496.84;;;21.64;61.10
25080;BME280;13071;48.868;9.996;2022-09-12T12:15:22;96493.22;;;21.74;61.62
25080;BME280;13071;48.868;9.996;2022-09-12T12:18:00;96490.34;;;21.88;61.83
25080;BME280;13071;48.868;9.996;2022-09-12T12:20:28;96492.19;;;22.05;58.24
25080;BME280;13071;48.868;9.996;2022-09-12T12:22:55;96486.44;;;21.85;56.61
25080;BME280;13071;48.868;9.996;2022-09-12T12:25:25;96490.09;;;21.68;60.70
25080;BME280;13071;48.868;9.996;2022-09-12T12:28:04;96474.75;;;21.71;62.19
25080;BME280;13071;48.868;9.996;2022-09-12T12:30:58;96473.00;;;21.94;60.10
25080;BME280;13071;48.868;9.996;2022-09-12T12:36:41;96474.75;;;21.71;62.09
25080;BME280;13071;48.868;9.996;2022-09-12T12:48:14;96447.28;;;21.60;60.76
25080;BME280;13071;48.868;9.996;2022-09-12T12:50:42;96457.19;;;21.54;61.26
25080;BME280;13071;48.868;9.996;2022-09-12T12:53:17;96452.91;;;21.98;54.71
25080;BME280;13071;48.868;9.996;2022-09-12T12:55:46;96459.97;;;21.99;59.44
25080;BME280;13071;48.868;9.996;2022-09-12T12:58:28;96456.56;;;22.25;55.86
25080;BME280;13071;48.868;9.996;2022-09-12T13:01:09;96450.38;;;22.14;55.77
25080;BME280;13071;48.868;9.996;2022-09-12T13:03:39;96453.28;;;21.96;57.88
25080;BME280;13071;48.868;9.996;2022-09-12T13:06:08;96458.53;;;21.80;58.15
25080;BME280;13071;48.868;9.996;2022-09-12T13:08:58;96455.25;;;21.99;54.99
25080;BME280;13071;48.868;9.996;2022-09-12T13:11:33;96454.28;;;22.16;55.13
25080;BME280;13071;48.868;9.996;2022-09-12T13:14:02;96456.19;;;22.23;55.38
25080;BME280;13071;48.868;9.996;2022-09-12T13:16:31;96444.03;;;22.17;54.68
25080;BME280;13071;48.868;9.996;2022-09-12T13:19:02;96440.56;;;22.47;55.27
25080;BME280;13071;48.868;9.996;2022-09-12T13:21:29;96448.53;;;22.37;54.36
25080;BME280;13071;48.868;9.996;2022-09-12T13:26:32;96441.91;;;22.65;54.47
25080;BME280;13071;48.868;9.996;2022-09-12T13:29:15;96433.84;;;22.48;54.69
25080;BME280;13071;48.868;9.996;2022-09-12T13:31:42;96434.88;;;22.27;53.62
25080;BME280;13071;48.868;9.996;2022-09-12T13:34:10;96432.91;;;22.27;50.20
25080;BME280;13071;48.868;9.996;2022-09-12T13:36:52;96428.72;;;22.50;49.70